Time;durP1;ratioP1;P1;durP2;ratioP2;P2;SDS_P1;SDS_P2;PMS_P1;PMS_P2;Temp;Humidity;BMP_temperature;BMP_pressure;BME280_temperature;BME280_humidity;BME280_pressure;Samples;Min_cycle;Max_cycle;Signal;HPM_P1;HPM_P2
2022/03/10 00:01:26;;;;;;;20.95;15.45;;;2.40;99.90;;;;;;4987084;28;20050;-68
2022/03/10 00:03:52;;;;;;;25.45;16.25;;;2.30;99.90;;;;;;4986463;28;20130;-68
2022/03/10 00:06:18;;;;;;;23.85;14.93;;;2.30;99.90;;;;;;4987362;28;20035;-68
2022/03/10 00:08:44;;;;;;;22.48;16.63;;;2.20;99.90;;;;;;4990864;28;20043;-68
2022/03/10 00:11:10;;;;;;;22.67;15.30;;;2.10;99.90;;;;;;4988874;28;20106;-68
2022/03/10 00:13:35;;;;;;;24.73;15.63;;;2.10;99.90;;;;;;4989505;28;20078;-68
2022/03/10 00:16:01;;;;;;;24.15;16.27;;;2.20;99.90;;;;;;4987193;28;20042;-68
2022/03/10 00:18:27;;;;;;;21.15;14.82;;;2.10;99.90;;;;;;4983163;28;20077;-68
2022/03/10 00:20:53;;;;;;;25.00;16.15;;;2.20;99.90;;;;;;4986340;28;20039;-68
2022/03/10 00:23:19;;;;;;;25.20;15.65;;;2.20;99.90;;;;;;4990143;28;20046;-68
2022/03/10 00:25:44;;;;;;;22.50;15.05;;;2.10;99.90;;;;;;4989212;28;20053;-68
2022/03/10 00:28:10;;;;;;;22.48;15.40;;;2.10;99.90;;;;;;4984282;28;20046;-68
2022/03/10 00:30:36;;;;;;;20.58;14.55;;;2.00;99.90;;;;;;4991588;28;20062;-68
2022/03/10 00:33:02;;;;;;;24.63;17.08;;;1.90;99.90;;;;;;4987832;28;20106;-69
2022/03/10 00:35:28;;;;;;;22.88;15.35;;;1.70;99.90;;;;;;4988977;28;20043;-68
2022/03/10 00:37:56;;;;;;;21.77;14.75;;;1.70;99.90;;;;;;4985037;28;20051;-68
2022/03/10 00:40:21;;;;;;;23.30;15.98;;;1.70;99.90;;;;;;4989843;28;20069;-68
2022/03/10 00:42:49;;;;;;;23.65;16.80;;;1.70;99.90;;;;;;4989843;28;20054;-68
2022/03/10 00:45:19;;;;;;;21.92;15.38;;;1.70;99.90;;;;;;4990803;28;20070;-68
2022/03/10 00:47:44;;;;;;;22.23;15.82;;;1.70;99.90;;;;;;4988360;28;20487;-68
2022/03/10 00:50:11;;;;;;;23.50;15.98;;;1.80;99.90;;;;;;4988070;28;20055;-68
2022/03/10 00:52:45;;;;;;;21.13;14.60;;;1.70;99.90;;;;;;4987864;28;20093;-68
2022/03/10 00:55:12;;;;;;;22.33;15.88;;;1.70;99.90;;;;;;4987746;28;20058;-68
2022/03/10 00:57:39;;;;;;;23.35;15.93;;;1.60;99.90;;;;;;4989518;28;20050;-68
2022/03/10 01:00:06;;;;;;;24.63;16.00;;;1.50;99.90;;;;;;4995002;28;20394;-69
2022/03/10 01:02:34;;;;;;;26.38;17.00;;;1.50;99.90;;;;;;4988713;28;20057;-70
2022/03/10 01:05:00;;;;;;;22.42;16.15;;;1.50;99.90;;;;;;4987666;28;20039;-70
2022/03/10 01:07:26;;;;;;;29.40;17.08;;;1.50;99.90;;;;;;4986378;28;20054;-68
2022/03/10 01:09:52;;;;;;;20.95;16.45;;;1.50;99.90;;;;;;4989668;28;20039;-67
2022/03/10 01:12:18;;;;;;;21.80;15.90;;;1.40;99.90;;;;;;4987529;28;20057;-68
2022/03/10 01:14:44;;;;;;;24.08;15.60;;;1.30;99.90;;;;;;4992421;28;20094;-68
2022/03/10 01:17:09;;;;;;;22.10;15.10;;;1.20;99.90;;;;;;4986324;28;20042;-69
2022/03/10 01:19:35;;;;;;;25.35;15.77;;;1.10;99.90;;;;;;4993886;28;20084;-70
2022/03/10 01:22:01;;;;;;;23.30;16.65;;;0.90;99.90;;;;;;4991936;28;20053;-70
2022/03/10 01:24:27;;;;;;;22.77;15.07;;;0.80;99.90;;;;;;4990676;28;20109;-70
2022/03/10 01:26:52;;;;;;;24.35;16.70;;;0.80;99.90;;;;;;4986289;28;20038;-68
2022/03/10 01:29:18;;;;;;;22.50;15.75;;;0.90;99.90;;;;;;4988529;28;20102;-68
2022/03/10 01:31:45;;;;;;;23.63;16.60;;;1.00;99.90;;;;;;4988273;28;20051;-69
2022/03/10 01:34:10;;;;;;;28.63;16.23;;;1.20;99.90;;;;;;4991865;28;20042;-69
2022/03/10 01:36:36;;;;;;;23.88;16.52;;;1.50;99.90;;;;;;4990552;28;20053;-69
2022/03/10 01:39:04;;;;;;;25.13;15.82;;;1.70;99.90;;;;;;4988661;28;20046;-69
2022/03/10 01:41:32;;;;;;;24.08;15.93;;;1.90;99.90;;;;;;4988841;28;20103;-69
2022/03/10 01:44:06;;;;;;;20.45;15.60;;;2.00;99.90;;;;;;4993452;28;20057;-69
2022/03/10 01:46:33;;;;;;;24.33;17.67;;;2.10;99.90;;;;;;4985922;28;20113;-69
2022/03/10 01:48:59;;;;;;;21.75;15.65;;;2.20;99.90;;;;;;4985985;28;20471;-70
2022/03/10 01:51:25;;;;;;;22.02;15.15;;;2.30;99.90;;;;;;4987407;28;20149;-69
2022/03/10 01:53:51;;;;;;;25.23;16.08;;;2.40;99.90;;;;;;4987681;28;20062;-69
2022/03/10 01:56:18;;;;;;;24.35;15.43;;;2.50;99.90;;;;;;4986344;28;20052;-69
2022/03/10 01:58:46;;;;;;;21.23;14.10;;;2.50;99.90;;;;;;4990082;28;20034;-69
2022/03/10 02:01:12;;;;;;;23.17;15.00;;;2.60;99.90;;;;;;4989736;28;20043;-69
2022/03/10 02:03:38;;;;;;;25.13;16.23;;;2.70;99.90;;;;;;4988396;28;20049;-69
2022/03/10 02:06:05;;;;;;;22.90;15.82;;;2.80;99.90;;;;;;4969773;28;20130;-69
2022/03/10 02:11:16;;;;;;;21.98;14.68;;;2.90;99.90;;;;;;4986526;28;20062;-69
2022/03/10 02:13:41;;;;;;;23.75;15.23;;;2.90;99.90;;;;;;4986148;28;20047;-69
2022/03/10 02:18:55;;;;;;;24.88;16.35;;;2.90;99.90;;;;;;4991043;28;20050;-69
2022/03/10 02:21:21;;;;;;;23.08;15.38;;;2.90;99.90;;;;;;4988206;28;20046;-69
2022/03/10 02:23:47;;;;;;;22.27;15.38;;;2.80;99.90;;;;;;4988524;28;20451;-69
2022/03/10 02:26:13;;;;;;;23.10;16.10;;;2.80;99.90;;;;;;4986539;28;20051;-69
2022/03/10 02:28:40;;;;;;;23.08;15.40;;;2.80;99.90;;;;;;4985705;28;20145;-69
2022/03/10 02:31:06;;;;;;;23.33;14.80;;;2.80;99.90;;;;;;4988265;28;20063;-69
2022/03/10 02:33:32;;;;;;;21.58;15.20;;;2.90;99.90;;;;;;4990823;28;20055;-69
2022/03/10 02:35:58;;;;;;;22.95;15.68;;;2.90;99.90;;;;;;4989558;28;20043;-69
2022/03/10 02:38:24;;;;;;;22.77;15.88;;;3.00;99.90;;;;;;4986401;28;20537;-69
2022/03/10 02:40:51;;;;;;;20.52;14.48;;;3.00;99.90;;;;;;4987082;28;20114;-69
2022/03/10 02:43:19;;;;;;;22.23;15.07;;;3.00;99.90;;;;;;4987763;28;20050;-69
2022/03/10 02:45:45;;;;;;;22.00;15.02;;;3.00;99.90;;;;;;4984385;28;20043;-69
2022/03/10 02:48:15;;;;;;;20.83;14.48;;;2.80;99.90;;;;;;4987037;28;20070;-69
2022/03/10 02:50:42;;;;;;;21.05;14.77;;;2.70;99.90;;;;;;4986754;28;20055;-69
2022/03/10 02:53:08;;;;;;;22.90;14.80;;;2.60;99.90;;;;;;4990151;28;20081;-69
2022/03/10 02:55:34;;;;;;;22.60;14.98;;;2.50;99.90;;;;;;4984833;28;20034;-69
2022/03/10 02:58:00;;;;;;;24.95;18.30;;;2.30;99.90;;;;;;4986365;28;20043;-69
2022/03/10 03:00:26;;;;;;;27.38;16.40;;;2.10;99.90;;;;;;4985094;28;20054;-69
2022/03/10 03:02:52;;;;;;;24.80;15.40;;;2.00;99.90;;;;;;4990215;28;20054;-69
2022/03/10 03:05:18;;;;;;;22.90;15.98;;;1.90;99.90;;;;;;4986995;28;20050;-69
2022/03/10 03:07:45;;;;;;;24.20;16.25;;;1.80;99.90;;;;;;4989915;28;20070;-69
2022/03/10 03:10:12;;;;;;;30.30;16.10;;;1.70;99.90;;;;;;4991791;28;20098;-69
2022/03/10 03:12:50;;;;;;;22.83;16.13;;;1.60;99.90;;;;;;4987083;28;20042;-69
2022/03/10 03:15:16;;;;;;;23.02;16.30;;;1.60;99.90;;;;;;4985919;28;20053;-69
2022/03/10 03:17:42;;;;;;;24.33;16.98;;;1.60;99.90;;;;;;4987771;28;20086;-70
2022/03/10 03:20:14;;;;;;;22.80;15.63;;;1.50;99.90;;;;;;4974930;28;20054;-70
2022/03/10 03:22:40;;;;;;;22.65;15.88;;;1.40;99.90;;;;;;4989501;28;20089;-70
2022/03/10 03:25:06;;;;;;;24.40;16.60;;;1.30;99.90;;;;;;4991265;28;20049;-70
2022/03/10 03:27:32;;;;;;;23.98;16.60;;;1.30;99.90;;;;;;4987252;28;20058;-70
2022/03/10 03:29:58;;;;;;;23.73;16.23;;;1.20;99.90;;;;;;4983529;28;20045;-70
2022/03/10 03:32:24;;;;;;;30.40;17.05;;;1.10;99.90;;;;;;4985189;28;20057;-69
2022/03/10 03:34:49;;;;;;;24.33;15.93;;;1.00;99.90;;;;;;4989748;28;20074;-69
2022/03/10 03:37:15;;;;;;;23.40;14.40;;;1.00;99.90;;;;;;4985811;28;20038;-69
2022/03/10 03:39:41;;;;;;;23.63;15.40;;;1.10;99.90;;;;;;4988328;28;20082;-69
2022/03/10 03:42:06;;;;;;;21.73;15.02;;;1.20;99.90;;;;;;4986912;28;20098;-69
2022/03/10 03:44:32;;;;;;;23.23;14.80;;;1.40;99.90;;;;;;4985188;28;20038;-69
2022/03/10 03:46:58;;;;;;;22.02;15.27;;;1.50;99.90;;;;;;4984851;28;20050;-69
2022/03/10 03:49:23;;;;;;;26.55;16.60;;;1.60;99.90;;;;;;4986251;28;20058;-69
2022/03/10 03:51:49;;;;;;;28.25;15.57;;;1.70;99.90;;;;;;4986743;28;20077;-69
2022/03/10 03:54:15;;;;;;;24.90;15.52;;;1.80;99.90;;;;;;4986702;28;20050;-69
2022/03/10 03:56:40;;;;;;;21.92;14.38;;;1.80;99.90;;;;;;4987602;28;20050;-69
2022/03/10 03:59:06;;;;;;;21.75;15.20;;;1.80;99.90;;;;;;4983233;28;20047;-69
2022/03/10 04:01:32;;;;;;;24.13;15.68;;;1.80;99.90;;;;;;4985829;28;20078;-69
2022/03/10 04:03:58;;;;;;;22.48;16.05;;;1.80;99.90;;;;;;4988067;28;20090;-69
2022/03/10 04:06:24;;;;;;;24.80;15.75;;;1.70;99.90;;;;;;4984380;28;20055;-69
2022/03/10 04:08:50;;;;;;;25.08;15.40;;;1.60;99.90;;;;;;4984069;28;20070;-69
2022/03/10 04:11:17;;;;;;;24.63;15.50;;;1.60;99.90;;;;;;4985509;28;20094;-69
2022/03/10 04:13:43;;;;;;;23.63;15.65;;;1.40;99.90;;;;;;4984534;28;20039;-69
2022/03/10 04:16:09;;;;;;;25.88;17.05;;;1.30;99.90;;;;;;4984016;28;20066;-69
2022/03/10 04:18:34;;;;;;;27.80;16.10;;;1.10;99.90;;;;;;4987382;28;20051;-69
2022/03/10 04:21:00;;;;;;;22.80;15.65;;;1.00;99.90;;;;;;4989107;28;20133;-69
2022/03/10 04:23:26;;;;;;;22.90;15.95;;;0.90;99.90;;;;;;4990888;28;20042;-69
2022/03/10 04:25:53;;;;;;;24.75;16.10;;;0.80;99.90;;;;;;4989827;28;20506;-70
2022/03/10 04:28:19;;;;;;;24.38;15.23;;;0.70;99.90;;;;;;4987350;28;20472;-70
2022/03/10 04:30:45;;;;;;;22.83;15.38;;;0.60;99.90;;;;;;4989097;28;20070;-67
2022/03/10 04:33:11;;;;;;;26.33;16.23;;;0.60;99.90;;;;;;4981799;28;20074;-67
2022/03/10 04:35:37;;;;;;;23.30;15.82;;;0.70;99.90;;;;;;4989059;28;20042;-67
2022/03/10 04:38:03;;;;;;;23.65;15.80;;;0.70;99.90;;;;;;4972890;28;20054;-67
2022/03/10 04:40:29;;;;;;;23.95;15.55;;;0.70;99.90;;;;;;4993401;28;20066;-67
2022/03/10 04:42:56;;;;;;;19.90;14.52;;;0.70;99.90;;;;;;4989607;28;20499;-67
2022/03/10 04:45:22;;;;;;;21.30;14.93;;;0.70;99.90;;;;;;4988626;28;20051;-67
2022/03/10 04:47:48;;;;;;;23.23;15.80;;;0.70;99.90;;;;;;4972580;28;20057;-67
2022/03/10 04:50:16;;;;;;;22.13;15.73;;;0.60;99.90;;;;;;4992834;28;20514;-67
2022/03/10 04:52:42;;;;;;;23.27;15.35;;;0.60;99.90;;;;;;4988999;28;20089;-67
2022/03/10 04:55:10;;;;;;;23.27;15.70;;;0.60;99.90;;;;;;4991067;28;20085;-68
2022/03/10 04:57:36;;;;;;;24.33;15.43;;;0.60;99.90;;;;;;4986459;28;20062;-68
2022/03/10 05:00:08;;;;;;;24.80;16.33;;;0.50;99.90;;;;;;4988788;28;20043;-69
2022/03/10 05:02:38;;;;;;;23.27;15.55;;;0.50;99.90;;;;;;4989495;28;20050;-69
2022/03/10 05:05:05;;;;;;;24.50;16.38;;;0.50;99.90;;;;;;4991561;28;20066;-69
2022/03/10 05:07:31;;;;;;;23.08;16.25;;;0.40;99.90;;;;;;4989955;28;20054;-70
2022/03/10 05:09:58;;;;;;;26.95;16.83;;;0.30;99.90;;;;;;4995047;28;20046;-70
2022/03/10 05:12:24;;;;;;;25.00;16.80;;;0.30;99.90;;;;;;4988711;28;20038;-70
2022/03/10 05:14:50;;;;;;;24.85;15.93;;;0.30;99.90;;;;;;4989777;28;20072;-70
2022/03/10 05:17:15;;;;;;;22.48;15.15;;;0.40;99.90;;;;;;4988604;28;20042;-69
2022/03/10 05:19:41;;;;;;;23.38;14.95;;;0.50;99.90;;;;;;4992548;28;20051;-69
2022/03/10 05:22:07;;;;;;;24.92;14.95;;;0.60;99.90;;;;;;4987159;28;20399;-70
2022/03/10 05:24:32;;;;;;;23.90;14.35;;;0.70;99.90;;;;;;4987966;28;20085;-69
2022/03/10 05:26:58;;;;;;;23.25;15.27;;;0.90;99.90;;;;;;4993669;28;20058;-69
2022/03/10 05:29:24;;;;;;;23.92;14.77;;;0.90;99.90;;;;;;4989965;28;20046;-69
2022/03/10 05:31:49;;;;;;;22.35;13.90;;;1.00;99.90;;;;;;4993197;28;20045;-69
2022/03/10 05:34:15;;;;;;;22.27;14.82;;;1.10;99.90;;;;;;4989614;28;20059;-69
2022/03/10 05:36:41;;;;;;;22.92;14.68;;;1.20;99.90;;;;;;4991330;28;20039;-69
2022/03/10 05:39:07;;;;;;;20.65;13.95;;;1.20;99.90;;;;;;4992426;28;20050;-69
2022/03/10 05:41:33;;;;;;;21.65;13.70;;;1.20;99.90;;;;;;4973641;28;20222;-69
2022/03/10 05:43:59;;;;;;;23.05;14.93;;;1.20;99.90;;;;;;4995525;28;20038;-67
2022/03/10 05:46:25;;;;;;;33.90;18.15;;;1.30;99.90;;;;;;4989113;28;20053;-66
2022/03/10 05:48:50;;;;;;;31.27;18.58;;;1.30;99.90;;;;;;4992186;28;20133;-66
2022/03/10 05:51:16;;;;;;;26.77;15.35;;;1.20;99.90;;;;;;5001802;28;20078;-66
2022/03/10 05:53:42;;;;;;;21.58;15.35;;;1.20;99.90;;;;;;4995944;28;20081;-67
2022/03/10 05:56:08;;;;;;;22.08;15.18;;;1.10;99.90;;;;;;4996342;28;20057;-67
2022/03/10 05:58:34;;;;;;;22.23;15.07;;;1.00;99.90;;;;;;5000299;28;20054;-67
2022/03/10 06:00:59;;;;;;;22.38;14.90;;;1.00;99.90;;;;;;4993368;28;20065;-67
2022/03/10 06:03:25;;;;;;;21.13;14.27;;;1.00;99.90;;;;;;4999781;28;20050;-67
2022/03/10 06:05:51;;;;;;;22.40;15.48;;;1.00;99.90;;;;;;4999632;28;20073;-68
2022/03/10 06:08:16;;;;;;;25.75;15.80;;;1.00;99.90;;;;;;4979038;28;20119;-71
2022/03/10 06:10:42;;;;;;;21.23;15.20;;;0.90;99.90;;;;;;4996708;28;20050;-71
2022/03/10 06:13:08;;;;;;;21.02;15.32;;;1.00;99.90;;;;;;4990318;28;20495;-71
2022/03/10 06:15:34;;;;;;;21.52;15.32;;;1.00;99.90;;;;;;5000065;28;20039;-71
2022/03/10 06:17:59;;;;;;;23.40;16.30;;;0.90;99.90;;;;;;4996580;28;20105;-71
2022/03/10 06:20:25;;;;;;;26.67;17.08;;;0.80;99.90;;;;;;4921233;28;20122;-71
2022/03/10 06:22:52;;;;;;;23.55;16.75;;;0.80;99.90;;;;;;4993085;28;20483;-72
2022/03/10 06:25:17;;;;;;;26.88;15.57;;;0.80;99.90;;;;;;4989420;28;20439;-69
2022/03/10 06:27:43;;;;;;;22.73;15.05;;;0.90;99.90;;;;;;4990576;28;20045;-67
2022/03/10 06:30:09;;;;;;;24.75;16.25;;;0.90;99.90;;;;;;4993479;28;20053;-67
2022/03/10 06:32:35;;;;;;;27.00;16.80;;;0.90;99.90;;;;;;4990075;28;20059;-67
2022/03/10 06:35:01;;;;;;;26.80;16.35;;;0.90;99.90;;;;;;4995245;28;20103;-67
2022/03/10 06:37:27;;;;;;;27.35;16.33;;;1.00;99.90;;;;;;4997294;28;20046;-79
2022/03/10 06:39:53;;;;;;;28.40;17.10;;;1.10;99.90;;;;;;4995995;28;20034;-70
2022/03/10 06:42:19;;;;;;;25.70;16.08;;;1.20;99.90;;;;;;4987301;28;20102;-70
2022/03/10 06:44:45;;;;;;;24.58;16.27;;;1.30;99.90;;;;;;4984190;28;20042;-69
2022/03/10 06:47:12;;;;;;;26.48;16.27;;;1.40;99.90;;;;;;4986817;28;20415;-70
2022/03/10 06:49:39;;;;;;;22.17;14.52;;;1.50;99.90;;;;;;4989233;28;20426;-71
2022/03/10 06:52:06;;;;;;;20.08;14.25;;;1.60;99.90;;;;;;4994841;28;20058;-71
2022/03/10 06:54:32;;;;;;;25.30;15.80;;;1.70;99.90;;;;;;4987675;28;20046;-71
2022/03/10 06:56:58;;;;;;;25.40;15.23;;;1.80;99.90;;;;;;4988529;28;20042;-71
2022/03/10 06:59:24;;;;;;;26.27;16.17;;;1.80;99.90;;;;;;4985830;28;20050;-71
2022/03/10 07:01:50;;;;;;;23.25;15.23;;;1.90;99.90;;;;;;4974762;28;20042;-71
2022/03/10 07:04:16;;;;;;;24.25;14.90;;;2.00;99.90;;;;;;4988124;28;20047;-68
2022/03/10 07:06:41;;;;;;;19.50;14.73;;;2.00;99.90;;;;;;4985973;28;20050;-68
2022/03/10 07:09:07;;;;;;;22.65;14.68;;;2.10;99.90;;;;;;4984800;28;20085;-69
2022/03/10 07:11:33;;;;;;;24.75;15.57;;;2.20;99.90;;;;;;4986999;28;20057;-68
2022/03/10 07:13:59;;;;;;;24.90;15.32;;;2.20;99.90;;;;;;4991159;28;20050;-68
2022/03/10 07:16:25;;;;;;;21.27;14.48;;;2.30;99.90;;;;;;4986053;28;20310;-69
2022/03/10 07:18:51;;;;;;;26.65;15.73;;;2.30;99.90;;;;;;4986707;28;20073;-69
2022/03/10 07:21:20;;;;;;;23.33;15.05;;;2.40;99.90;;;;;;4968933;28;20049;-69
2022/03/10 07:23:46;;;;;;;23.95;15.80;;;2.40;99.90;;;;;;4984908;28;20051;-69
2022/03/10 07:26:12;;;;;;;23.08;15.75;;;2.50;99.90;;;;;;4986894;28;20038;-69
2022/03/10 07:28:38;;;;;;;23.33;15.70;;;2.50;99.90;;;;;;4985641;28;20502;-69
2022/03/10 07:31:04;;;;;;;24.63;16.23;;;2.60;99.90;;;;;;4987508;28;20042;-68
2022/03/10 07:33:30;;;;;;;24.25;16.35;;;2.70;99.90;;;;;;4985875;28;20054;-68
2022/03/10 07:35:56;;;;;;;23.63;16.13;;;2.80;99.90;;;;;;4991149;28;20077;-68
2022/03/10 07:38:21;;;;;;;23.90;15.77;;;2.80;99.90;;;;;;4990152;28;20055;-68
2022/03/10 07:40:47;;;;;;;21.60;14.45;;;2.90;99.90;;;;;;4988626;28;20044;-68
2022/03/10 07:43:13;;;;;;;24.15;15.95;;;3.00;99.90;;;;;;4987642;28;20061;-68
2022/03/10 07:45:38;;;;;;;22.10;14.90;;;3.10;99.90;;;;;;4976183;28;20046;-68
2022/03/10 07:48:05;;;;;;;23.05;16.60;;;3.20;99.90;;;;;;4984067;28;20064;-68
2022/03/10 07:50:30;;;;;;;24.98;16.10;;;3.30;99.90;;;;;;4985937;28;20085;-68
2022/03/10 07:52:56;;;;;;;22.73;15.85;;;3.30;99.90;;;;;;4987699;28;20050;-68
2022/03/10 07:55:22;;;;;;;23.05;16.08;;;3.40;99.90;;;;;;4990163;28;20132;-68
2022/03/10 07:57:49;;;;;;;23.45;15.85;;;3.50;99.90;;;;;;4987464;28;20047;-68
2022/03/10 08:00:15;;;;;;;24.73;16.48;;;3.50;99.90;;;;;;4987831;28;20491;-68
2022/03/10 08:02:41;;;;;;;26.73;15.80;;;3.50;99.90;;;;;;4987051;28;20050;-68
2022/03/10 08:05:08;;;;;;;25.85;15.23;;;3.60;99.90;;;;;;4987609;28;20112;-68
2022/03/10 08:07:34;;;;;;;24.83;15.40;;;3.70;99.90;;;;;;4984450;28;20074;-68
2022/03/10 08:10:01;;;;;;;24.60;16.33;;;3.70;99.90;;;;;;4986024;28;20101;-68
2022/03/10 08:12:34;;;;;;;28.08;16.52;;;3.80;99.90;;;;;;4986212;28;20058;-68
2022/03/10 08:15:00;;;;;;;21.85;14.75;;;3.90;99.90;;;;;;4984885;28;20042;-69
2022/03/10 08:17:26;;;;;;;25.88;16.70;;;4.00;99.90;;;;;;4985815;28;20051;-69
2022/03/10 08:19:53;;;;;;;23.77;15.15;;;4.00;99.90;;;;;;4988417;28;20039;-69
2022/03/10 08:22:19;;;;;;;26.83;16.88;;;4.10;99.90;;;;;;4972180;28;20499;-69
2022/03/10 08:24:46;;;;;;;24.10;16.20;;;4.10;99.90;;;;;;4975033;28;20065;-68
2022/03/10 08:27:12;;;;;;;24.67;15.73;;;4.20;99.90;;;;;;4989121;28;20046;-69
2022/03/10 08:29:38;;;;;;;26.88;17.48;;;4.30;99.90;;;;;;4988190;28;20070;-69
2022/03/10 08:32:04;;;;;;;26.08;18.50;;;4.40;99.90;;;;;;4987432;28;20062;-69
2022/03/10 08:34:30;;;;;;;25.60;18.33;;;4.40;99.90;;;;;;4986281;28;20047;-68
2022/03/10 08:36:57;;;;;;;23.90;15.88;;;4.70;99.90;;;;;;4987173;28;20066;-69
2022/03/10 08:39:23;;;;;;;24.40;15.70;;;4.70;99.90;;;;;;4986342;28;20510;-68
2022/03/10 08:41:49;;;;;;;21.05;15.52;;;4.80;99.90;;;;;;4984032;28;20086;-68
2022/03/10 08:44:16;;;;;;;24.92;15.98;;;4.80;99.90;;;;;;4983382;28;20042;-68
2022/03/10 08:46:42;;;;;;;24.48;17.13;;;4.90;99.90;;;;;;4983448;28;20043;-68
2022/03/10 08:49:08;;;;;;;23.77;16.20;;;5.00;99.90;;;;;;4983455;28;21038;-69
2022/03/10 08:51:34;;;;;;;23.55;16.42;;;5.20;99.90;;;;;;4985225;28;20049;-69
2022/03/10 08:54:00;;;;;;;22.42;15.10;;;5.30;99.90;;;;;;4985712;28;20055;-69
2022/03/10 08:56:26;;;;;;;20.35;13.93;;;5.30;99.90;;;;;;4987919;28;20104;-68
2022/03/10 08:58:51;;;;;;;30.55;15.75;;;5.50;99.90;;;;;;4982886;28;20058;-68
2022/03/10 09:01:17;;;;;;;24.20;15.50;;;5.60;99.90;;;;;;4927893;28;20107;-68
2022/03/10 09:03:43;;;;;;;22.35;14.98;;;5.70;99.90;;;;;;4985811;28;20075;-68
2022/03/10 09:06:12;;;;;;;21.40;14.45;;;5.90;99.90;;;;;;4991440;28;20054;-68
2022/03/10 09:08:38;;;;;;;23.67;15.02;;;6.00;99.90;;;;;;4987243;28;20078;-68
2022/03/10 09:11:04;;;;;;;21.65;15.32;;;6.00;99.90;;;;;;4990962;28;20050;-68
2022/03/10 09:13:30;;;;;;;21.88;15.00;;;6.20;99.90;;;;;;4979571;28;20058;-68
2022/03/10 09:15:56;;;;;;;23.92;15.38;;;6.30;99.90;;;;;;4987850;28;20451;-68
2022/03/10 09:18:22;;;;;;;24.08;16.60;;;6.50;99.90;;;;;;4988405;28;20053;-68
2022/03/10 09:20:47;;;;;;;21.98;15.50;;;6.60;99.90;;;;;;4973135;28;20043;-68
2022/03/10 09:23:13;;;;;;;23.60;15.77;;;6.70;99.90;;;;;;4987711;28;20062;-68
2022/03/10 09:25:39;;;;;;;25.38;16.08;;;6.80;99.90;;;;;;4991603;28;20050;-68
2022/03/10 09:28:05;;;;;;;20.50;15.20;;;6.90;99.90;;;;;;4967560;28;20054;-68
2022/03/10 09:30:31;;;;;;;20.40;14.93;;;7.10;99.90;;;;;;4996158;28;20049;-68
2022/03/10 09:32:57;;;;;;;20.23;14.57;;;7.30;99.90;;;;;;4993757;28;20134;-68
2022/03/10 09:35:24;;;;;;;22.40;15.63;;;7.40;99.90;;;;;;4990085;28;20051;-68
2022/03/10 09:37:49;;;;;;;21.73;15.30;;;7.50;99.90;;;;;;4989078;28;20047;-67
2022/03/10 09:40:15;;;;;;;19.63;13.93;;;7.70;99.90;;;;;;4989326;28;20085;-68
2022/03/10 09:42:44;;;;;;;21.27;13.93;;;7.80;99.90;;;;;;4988542;28;20061;-68
2022/03/10 09:45:10;;;;;;;20.23;14.13;;;7.80;99.90;;;;;;4987927;28;20050;-67
2022/03/10 09:47:39;;;;;;;21.73;15.45;;;8.00;99.90;;;;;;4992759;28;20443;-68
2022/03/10 09:50:10;;;;;;;20.75;14.63;;;8.00;99.90;;;;;;4991863;28;20096;-68
2022/03/10 09:52:36;;;;;;;;;;;8.20;99.90;;;;;;4989212;28;20117;-68
2022/03/10 09:55:03;;;;;;;20.73;14.60;;;8.30;99.90;;;;;;4994877;28;19921;-68
2022/03/10 09:57:29;;;;;;;20.35;14.05;;;8.50;99.90;;;;;;4986196;28;20054;-68
2022/03/10 09:59:59;;;;;;;19.95;13.93;;;8.70;99.90;;;;;;4986732;28;20100;-68
2022/03/10 10:02:27;;;;;;;17.83;13.90;;;8.80;99.90;;;;;;4987926;28;20049;-67
2022/03/10 10:04:55;;;;;;;21.27;14.35;;;9.10;99.90;;;;;;4970536;28;20086;-67
2022/03/10 10:07:24;;;;;;;20.42;14.02;;;9.20;99.90;;;;;;4988960;28;20049;-67
2022/03/10 10:09:56;;;;;;;21.40;14.97;;;9.50;99.90;;;;;;4991292;28;20069;-66
2022/03/10 10:12:27;;;;;;;17.67;13.88;;;9.60;99.90;;;;;;4988082;28;20047;-66
2022/03/10 10:14:54;;;;;;;22.77;13.73;;;9.60;99.90;;;;;;4990430;28;20038;-66
2022/03/10 10:17:31;;;;;;;18.73;13.13;;;9.70;99.90;;;;;;4988267;28;20051;-66
2022/03/10 10:19:59;;;;;;;18.30;14.48;;;9.70;99.90;;;;;;4990216;28;20051;-66
2022/03/10 10:22:26;;;;;;;25.23;14.82;;;9.70;99.90;;;;;;4987540;28;20061;-67
2022/03/10 10:24:57;;;;;;;18.80;13.00;;;9.80;99.90;;;;;;4987547;28;20050;-68
2022/03/10 10:27:34;;;;;;;20.13;13.50;;;9.90;99.90;;;;;;4991120;28;20039;-68
2022/03/10 10:30:06;;;;;;;19.95;14.02;;;10.00;99.90;;;;;;4990871;28;20046;-69
2022/03/10 10:32:36;;;;;;;19.48;14.18;;;10.20;99.90;;;;;;4988814;28;20043;-69
2022/03/10 10:35:05;;;;;;;;;;;10.20;99.90;;;;;;4985648;28;20065;-69
2022/03/10 10:37:31;;;;;;;19.38;13.90;;;10.10;99.90;;;;;;4987782;28;19922;-68
2022/03/10 10:39:58;;;;;;;19.75;13.98;;;10.10;99.90;;;;;;4988209;28;20046;-68
2022/03/10 10:42:32;;;;;;;21.20;13.82;;;10.20;99.90;;;;;;4985989;28;20062;-68
2022/03/10 10:45:00;;;;;;;22.92;14.52;;;10.40;99.90;;;;;;4989196;28;20042;-68
2022/03/10 10:47:29;;;;;;;23.83;14.77;;;10.40;99.90;;;;;;4995079;28;20054;-67
2022/03/10 10:50:00;;;;;;;18.75;13.60;;;10.40;99.90;;;;;;4990606;28;20054;-67
2022/03/10 10:52:39;;;;;;;22.73;13.80;;;10.70;99.90;;;;;;4985090;28;20055;-67
2022/03/10 10:55:11;;;;;;;18.55;13.73;;;10.90;99.90;;;;;;4990029;28;20322;-68
2022/03/10 10:57:38;;;;;;;19.58;14.57;;;10.90;99.90;;;;;;4987369;28;20047;-68
2022/03/10 11:00:11;;;;;;;17.73;13.25;;;10.90;99.90;;;;;;4985735;28;20132;-68
2022/03/10 11:02:44;;;;;;;18.70;13.50;;;11.00;99.90;;;;;;4985424;28;20396;-69
2022/03/10 11:05:14;;;;;;;22.75;14.68;;;11.20;99.90;;;;;;4980285;28;20073;-69
2022/03/10 11:07:41;;;;;;;22.80;14.60;;;11.20;99.90;;;;;;4986755;28;20054;-69
2022/03/10 11:10:09;;;;;;;19.25;13.50;;;11.20;99.90;;;;;;4985553;28;20297;-69
2022/03/10 11:12:39;;;;;;;19.95;13.68;;;11.40;99.30;;;;;;4986833;28;20350;-69
2022/03/10 11:15:07;;;;;;;18.27;12.90;;;11.50;99.50;;;;;;4970549;28;20043;-69
2022/03/10 11:17:34;;;;;;;20.17;13.63;;;11.60;98.10;;;;;;4986887;28;20039;-69
2022/03/10 11:20:02;;;;;;;19.83;14.02;;;11.70;97.80;;;;;;4989653;28;20066;-69
2022/03/10 11:22:41;;;;;;;18.80;14.20;;;11.70;98.80;;;;;;4985723;28;20057;-69
2022/03/10 11:25:16;;;;;;;20.10;14.43;;;11.70;98.30;;;;;;4997927;28;20042;-69
2022/03/10 11:28:09;;;;;;;20.52;14.85;;;11.70;97.20;;;;;;4989877;28;20077;-69
2022/03/10 11:30:35;;;;;;;22.35;13.80;;;11.90;95.70;;;;;;4986282;28;20058;-68
2022/03/10 11:33:13;;;;;;;19.80;14.65;;;12.10;94.50;;;;;;4990741;28;20085;-71
2022/03/10 11:35:41;;;;;;;22.60;15.50;;;12.10;94.40;;;;;;4975981;28;20042;-68
2022/03/10 11:38:07;;;;;;;20.55;14.82;;;12.10;94.20;;;;;;5004912;28;20046;-67
2022/03/10 11:40:53;;;;;;;20.33;14.13;;;12.20;93.60;;;;;;5003536;28;20046;-67
2022/03/10 11:43:20;;;;;;;20.10;13.77;;;12.30;92.90;;;;;;5006018;28;20122;-67
2022/03/10 11:45:46;;;;;;;19.83;13.88;;;12.40;91.10;;;;;;5004727;28;20053;-67
2022/03/10 11:48:30;;;;;;;21.92;15.75;;;12.40;92.40;;;;;;4996774;28;20046;-67
2022/03/10 11:50:57;;;;;;;20.02;14.57;;;12.50;92.80;;;;;;4987888;28;20148;-67
2022/03/10 11:53:22;;;;;;;31.95;16.25;;;12.60;91.70;;;;;;5001819;28;20050;-67
2022/03/10 11:55:52;;;;;;;22.33;14.63;;;12.70;87.40;;;;;;5005557;28;20078;-67
2022/03/10 11:58:38;;;;;;;18.77;13.77;;;12.90;85.10;;;;;;5002874;28;20046;-67
2022/03/10 12:01:05;;;;;;;23.15;15.55;;;12.90;84.10;;;;;;4990746;28;20054;-67
2022/03/10 12:03:34;;;;;;;23.25;16.33;;;13.10;82.50;;;;;;4986296;28;20097;-69
2022/03/10 12:06:03;;;;;;;20.38;14.63;;;13.10;83.50;;;;;;4973250;28;20065;-68
2022/03/10 12:08:29;;;;;;;23.42;14.73;;;13.20;84.40;;;;;;5001662;28;20058;-69
2022/03/10 12:10:57;;;;;;;22.52;14.38;;;13.30;82.40;;;;;;5004338;28;20101;-69
2022/03/10 12:13:34;;;;;;;20.70;14.52;;;13.60;81.00;;;;;;5003633;28;20494;-68
2022/03/10 12:16:08;;;;;;;23.48;14.32;;;13.60;79.20;;;;;;4996534;28;20059;-68
2022/03/10 12:18:44;;;;;;;22.23;15.57;;;13.60;80.30;;;;;;5001760;28;20046;-67
2022/03/10 12:21:21;;;;;;;21.27;14.43;;;13.80;76.60;;;;;;4999677;28;20122;-68
2022/03/10 12:23:58;;;;;;;20.17;13.60;;;14.00;76.90;;;;;;4990369;28;20648;-69
2022/03/10 12:26:28;;;;;;;22.38;14.50;;;14.00;76.90;;;;;;4998681;28;20054;-70
2022/03/10 12:28:55;;;;;;;23.27;15.65;;;14.30;73.10;;;;;;4992692;28;20117;-69
2022/03/10 12:31:24;;;;;;;26.15;14.57;;;14.30;76.10;;;;;;5004494;28;20525;-68
2022/03/10 12:33:56;;;;;;;20.27;14.07;;;14.30;75.20;;;;;;4996182;28;20062;-68
2022/03/10 12:36:26;;;;;;;20.95;14.05;;;14.70;73.80;;;;;;4998271;28;20050;-69
2022/03/10 12:38:52;;;;;;;20.85;14.90;;;15.10;72.90;;;;;;5004457;28;20058;-69
2022/03/10 12:41:18;;;;;;;20.30;14.63;;;15.90;68.90;;;;;;5007246;28;20041;-72